Time;durP1;ratioP1;P1;durP2;ratioP2;P2;SDS_P1;SDS_P2;PMS_P1;PMS_P2;Temp;Humidity;BMP_temperature;BMP_pressure;BME280_temperature;BME280_humidity;BME280_pressure;Samples;Min_cycle;Max_cycle;Signal;HPM_P1;HPM_P2
2023/04/10 00:02:21;;;;;;;14.43;8.65;;;;;;;8.72;61.85;100630.09;4996137;28;20513;-85
2023/04/10 00:04:48;;;;;;;13.32;7.95;;;;;;;8.68;61.65;100624.19;4991138;28;20056;-85
2023/04/10 00:07:15;;;;;;;11.80;6.57;;;;;;;8.62;62.23;100624.56;4998547;28;20053;-85
2023/04/10 00:09:42;;;;;;;13.63;7.97;;;;;;;8.59;62.24;100630.09;4991061;28;20132;-86
2023/04/10 00:12:10;;;;;;;13.02;8.43;;;;;;;8.64;61.95;100625.31;5001301;28;20044;-86
2023/04/10 00:14:36;;;;;;;15.23;7.75;;;;;;;8.58;62.26;100626.59;5021273;28;20045;-85
2023/04/10 00:17:03;;;;;;;14.13;8.10;;;;;;;8.54;62.41;100627.75;4990920;28;20125;-85
2023/04/10 00:19:30;;;;;;;15.75;7.78;;;;;;;8.56;62.36;100625.00;5002606;28;20077;-85
2023/04/10 00:21:57;;;;;;;11.38;7.45;;;;;;;8.55;63.03;100624.16;5017203;28;20053;-86
2023/04/10 00:24:24;;;;;;;12.43;7.57;;;;;;;8.51;62.92;100624.47;4998259;28;20536;-85
2023/04/10 00:26:51;;;;;;;15.80;8.10;;;;;;;8.61;61.32;100623.72;5004684;28;20049;-85
2023/04/10 00:29:18;;;;;;;12.73;8.07;;;;;;;8.54;62.15;100622.44;4987250;28;20314;-85
2023/04/10 00:31:45;;;;;;;13.40;7.60;;;;;;;8.59;61.73;100615.03;4985599;28;20041;-86
2023/04/10 00:34:12;;;;;;;12.73;8.05;;;;;;;8.54;61.44;100614.50;5004843;28;22414;-86
2023/04/10 00:36:39;;;;;;;13.55;7.65;;;;;;;8.59;61.33;100614.19;5004163;28;20506;-85
2023/04/10 00:39:08;;;;;;;13.20;7.55;;;;;;;8.44;62.07;100614.25;4999781;28;20202;-85
2023/04/10 00:41:35;;;;;;;12.15;7.47;;;;;;;8.38;62.64;100617.31;4985449;28;20052;-85
2023/04/10 00:44:01;;;;;;;12.30;6.95;;;;;;;8.37;62.50;100612.97;5002435;28;20041;-84
2023/04/10 00:46:30;;;;;;;12.18;6.90;;;;;;;8.30;62.83;100608.19;5014419;28;20506;-85
2023/04/10 00:48:57;;;;;;;14.63;8.20;;;;;;;8.23;62.81;100608.59;5002475;28;20494;-85
2023/04/10 00:51:25;;;;;;;13.65;7.57;;;;;;;8.18;62.76;100604.56;4983714;28;20128;-86
2023/04/10 00:53:53;;;;;;;13.00;7.88;;;;;;;8.22;62.93;100611.34;5001442;28;20111;-85
2023/04/10 00:56:22;;;;;;;12.85;7.38;;;;;;;8.12;63.50;100605.81;4996621;28;20750;-86
2023/04/10 00:58:51;;;;;;;14.50;7.95;;;;;;;8.13;63.22;100604.84;4981497;28;20064;-86
2023/04/10 01:01:18;;;;;;;15.10;7.78;;;;;;;7.96;63.35;100607.75;5004806;28;20458;-85
2023/04/10 01:03:45;;;;;;;13.32;7.82;;;;;;;7.94;63.11;100609.66;5008917;28;20494;-86
2023/04/10 01:06:43;;;;;;;15.68;8.18;;;;;;;7.76;63.64;100627.53;4971287;28;20058;-86
2023/04/10 01:09:38;;;;;;;12.00;7.50;;;;;;;7.74;64.07;100624.16;5001748;28;20116;-85
2023/04/10 01:12:17;;;;;;;13.77;7.47;;;;;;;7.84;63.74;100635.84;4993740;28;20455;-86
2023/04/10 01:14:55;;;;;;;15.30;7.72;;;;;;;7.63;64.86;100637.19;5009906;28;20499;-85
2023/04/10 01:17:25;;;;;;;12.02;7.30;;;;;;;7.71;64.84;100632.28;4985235;28;20046;-86
2023/04/10 01:20:12;;;;;;;13.38;7.72;;;;;;;7.73;65.42;100628.59;5008256;28;20048;-85
2023/04/10 01:23:01;;;;;;;13.43;7.72;;;;;;;7.77;65.94;100630.09;4999499;28;20521;-87
2023/04/10 01:25:34;;;;;;;13.77;7.97;;;;;;;7.93;64.06;100629.94;5016132;28;20045;-86
2023/04/10 01:28:22;;;;;;;12.40;7.53;;;;;;;7.89;63.79;100625.00;5011058;28;20076;-86
2023/04/10 01:30:56;;;;;;;14.13;7.70;;;;;;;7.87;64.09;100625.06;5012893;28;20064;-85
2023/04/10 01:33:29;;;;;;;12.15;7.10;;;;;;;7.87;64.01;100630.38;4991464;28;20556;-86
2023/04/10 01:35:57;;;;;;;;;;;;;;;7.66;64.87;100629.94;4979419;28;20044;-86
2023/04/10 01:38:26;;;;;;;14.77;8.00;;;;;;;7.72;64.44;100634.84;4997552;28;19921;-86
2023/04/10 01:40:54;;;;;;;13.90;7.63;;;;;;;7.79;63.91;100625.56;4988986;28;20133;-86
2023/04/10 01:43:28;;;;;;;12.07;7.00;;;;;;;7.74;63.54;100619.72;4983881;28;20091;-85
2023/04/10 01:45:56;;;;;;;12.23;7.28;;;;;;;7.74;63.76;100621.53;4994546;28;20042;-85
2023/04/10 01:48:24;;;;;;;14.55;7.85;;;;;;;7.78;63.64;100623.84;5005376;28;20144;-84
2023/04/10 01:50:52;;;;;;;12.77;7.90;;;;;;;7.73;63.99;100622.47;4999978;28;20435;-84
2023/04/10 01:53:22;;;;;;;12.27;7.53;;;;;;;7.83;64.08;100626.22;4981748;28;20461;-84
2023/04/10 01:55:50;;;;;;;14.38;8.40;;;;;;;7.95;63.26;100621.94;4984370;28;20058;-84
2023/04/10 01:58:17;;;;;;;14.73;8.35;;;;;;;7.95;62.89;100616.66;4996036;28;20045;-85
2023/04/10 02:00:45;;;;;;;15.00;8.18;;;;;;;7.96;63.28;100624.50;5011345;28;20657;-84
2023/04/10 02:03:14;;;;;;;15.27;8.48;;;;;;;7.86;63.93;100620.75;5007696;28;20502;-84
2023/04/10 02:06:09;;;;;;;15.85;8.27;;;;;;;7.70;64.20;100618.22;4983306;28;20139;-84
2023/04/10 02:08:41;;;;;;;14.95;8.65;;;;;;;7.73;64.08;100618.00;4993539;28;20510;-84
2023/04/10 02:11:49;;;;;;;14.52;8.20;;;;;;;7.63;64.40;100616.06;5001667;28;20508;-83
2023/04/10 02:14:17;;;;;;;16.13;8.65;;;;;;;7.66;64.29;100606.16;5000342;28;20050;-85
2023/04/10 02:16:49;;;;;;;14.75;8.15;;;;;;;7.64;64.46;100609.84;4995745;28;20052;-85
2023/04/10 02:19:16;;;;;;;14.55;8.27;;;;;;;7.67;64.26;100602.56;5016200;28;20656;-84
2023/04/10 02:21:46;;;;;;;12.55;7.38;;;;;;;7.66;64.51;100605.28;4984465;28;20502;-84
2023/04/10 02:24:13;;;;;;;13.10;7.57;;;;;;;7.64;64.29;100613.34;4992878;28;20052;-84
2023/04/10 02:26:47;;;;;;;13.93;7.80;;;;;;;7.57;64.40;100617.31;5010730;28;20081;-84
2023/04/10 02:29:14;;;;;;;15.07;8.27;;;;;;;7.70;64.30;100612.09;5001094;28;20123;-84
2023/04/10 02:31:41;;;;;;;14.90;8.50;;;;;;;7.57;64.45;100626.06;4985562;28;20045;-85
2023/04/10 02:34:09;;;;;;;13.20;8.57;;;;;;;7.61;64.63;100619.66;4998044;28;20448;-85
2023/04/10 02:36:38;;;;;;;13.43;8.25;;;;;;;7.58;64.52;100626.91;4998061;28;20084;-84
2023/04/10 02:39:07;;;;;;;16.20;8.98;;;;;;;7.62;64.17;100620.50;4981381;28;20058;-84
2023/04/10 02:41:43;;;;;;;14.45;8.13;;;;;;;7.57;64.37;100627.88;4977304;28;20045;-84
2023/04/10 02:44:12;;;;;;;12.50;7.78;;;;;;;7.46;64.61;100625.91;5017082;28;20490;-84
2023/04/10 02:46:40;;;;;;;16.55;8.90;;;;;;;7.48;64.76;100631.09;4994355;28;20502;-84
2023/04/10 02:49:09;;;;;;;16.25;8.43;;;;;;;7.53;64.47;100621.94;4977209;28;20060;-84
2023/04/10 02:51:36;;;;;;;13.73;7.93;;;;;;;7.47;64.78;100626.75;5028726;28;20132;-84
2023/04/10 02:54:06;;;;;;;15.75;8.10;;;;;;;7.42;64.64;100621.75;4982539;28;20046;-85
2023/04/10 02:56:34;;;;;;;16.25;9.00;;;;;;;7.37;65.31;100622.03;4983570;28;20057;-84
2023/04/10 02:59:01;;;;;;;14.25;8.65;;;;;;;7.41;65.01;100616.59;5007933;28;20060;-83
2023/04/10 03:01:28;;;;;;;15.38;7.93;;;;;;;7.38;64.73;100612.34;5008206;28;20512;-84
2023/04/10 03:03:56;;;;;;;15.80;8.30;;;;;;;7.42;64.58;100611.19;4978822;28;20165;-84
2023/04/10 03:06:27;;;;;;;15.00;8.07;;;;;;;7.37;64.74;100594.78;4983994;28;20049;-83
2023/04/10 03:08:56;;;;;;;14.18;7.88;;;;;;;7.34;64.95;100594.97;5007066;28;20049;-85
2023/04/10 03:11:22;;;;;;;16.98;9.30;;;;;;;7.36;64.58;100595.72;5020013;28;20048;-83
2023/04/10 03:13:50;;;;;;;16.33;8.60;;;;;;;7.26;65.63;100597.25;4997876;28;20047;-84
2023/04/10 03:16:17;;;;;;;15.27;9.10;;;;;;;7.30;65.03;100594.34;4997319;28;20065;-84
2023/04/10 03:18:45;;;;;;;12.63;8.30;;;;;;;7.32;64.31;100592.41;4990811;28;20053;-85
2023/04/10 03:21:12;;;;;;;14.68;8.68;;;;;;;7.14;64.99;100602.34;4991354;28;20148;-85
2023/04/10 03:23:39;;;;;;;16.85;8.52;;;;;;;7.08;64.94;100604.53;5010685;28;20049;-84
2023/04/10 03:26:06;;;;;;;12.65;8.10;;;;;;;7.09;65.50;100606.22;4990699;28;20066;-84
2023/04/10 03:28:36;;;;;;;13.02;7.80;;;;;;;7.03;65.98;100601.31;5000359;28;20049;-84
2023/04/10 03:31:04;;;;;;;13.05;7.10;;;;;;;6.95;65.90;100599.16;5004018;28;20044;-84
2023/04/10 03:33:34;;;;;;;13.07;7.50;;;;;;;7.06;65.88;100599.31;4978169;28;20175;-85
2023/04/10 03:36:02;;;;;;;14.13;7.45;;;;;;;6.94;66.12;100592.16;4986236;28;20053;-84
2023/04/10 03:38:31;;;;;;;14.20;8.55;;;;;;;6.95;66.19;100583.31;5012704;28;20056;-84
2023/04/10 03:40:58;;;;;;;13.45;7.68;;;;;;;6.90;66.35;100577.47;4998176;28;20049;-84
2023/04/10 03:43:29;;;;;;;14.27;7.63;;;;;;;6.86;66.53;100589.97;4994285;28;20474;-85
2023/04/10 03:45:57;;;;;;;15.88;8.45;;;;;;;6.84;66.65;100585.75;4946983;28;20511;-84
2023/04/10 03:48:27;;;;;;;13.65;7.15;;;;;;;6.81;66.71;100583.28;4988826;28;20092;-85
2023/04/10 03:50:54;;;;;;;13.98;8.30;;;;;;;6.77;66.83;100577.38;4966863;28;20692;-84
2023/04/10 03:53:21;;;;;;;13.70;7.78;;;;;;;6.82;66.62;100579.69;4982980;28;20490;-85
2023/04/10 03:55:51;;;;;;;12.63;7.18;;;;;;;6.67;66.55;100563.88;4996896;28;20049;-84
2023/04/10 03:58:19;;;;;;;16.48;8.27;;;;;;;6.71;66.67;100565.38;4979140;28;20064;-84
2023/04/10 04:00:48;;;;;;;14.70;8.13;;;;;;;6.66;66.56;100569.22;4997074;28;20136;-84
2023/04/10 04:03:27;;;;;;;11.70;7.30;;;;;;;6.61;67.31;100566.03;4986741;28;20045;-85
2023/04/10 04:05:57;;;;;;;15.48;8.48;;;;;;;6.64;67.30;100568.47;5000441;28;20045;-85
2023/04/10 04:08:50;;;;;;;13.88;8.02;;;;;;;6.70;67.46;100576.03;4985909;28;20057;-84
2023/04/10 04:11:34;;;;;;;18.77;9.75;;;;;;;6.62;67.24;100568.56;5015941;28;20172;-84
2023/04/10 04:14:06;;;;;;;16.35;8.70;;;;;;;6.68;67.37;100565.56;4996203;28;20171;-84
2023/04/10 04:16:51;;;;;;;14.65;9.13;;;;;;;6.52;67.27;100555.09;4989318;28;20057;-84
2023/04/10 04:19:24;;;;;;;16.92;8.63;;;;;;;6.57;66.75;100562.72;5004158;28;20046;-84
2023/04/10 04:22:09;;;;;;;17.30;7.85;;;;;;;6.63;66.61;100562.34;4977133;28;20099;-84
2023/04/10 04:24:54;;;;;;;16.00;8.18;;;;;;;6.49;67.92;100559.72;5011234;28;20061;-84
2023/04/10 04:27:31;;;;;;;13.63;7.93;;;;;;;6.43;68.68;100568.81;4994744;28;20407;-84
2023/04/10 04:30:27;;;;;;;16.20;8.73;;;;;;;6.36;68.46;100567.50;4980821;28;20053;-84
2023/04/10 04:33:13;;;;;;;12.43;7.57;;;;;;;6.32;68.14;100563.34;5011147;28;20128;-84
2023/04/10 04:35:58;;;;;;;13.60;7.93;;;;;;;6.40;67.97;100568.16;5018193;28;20528;-85
2023/04/10 04:38:51;;;;;;;15.73;8.05;;;;;;;6.40;67.86;100573.44;5014051;28;20054;-84
2023/04/10 04:41:50;;;;;;;16.02;8.80;;;;;;;6.40;68.00;100571.63;4986270;28;20050;-84
2023/04/10 04:44:31;;;;;;;14.93;8.80;;;;;;;6.33;68.17;100569.47;4984156;28;20108;-85
2023/04/10 04:47:27;;;;;;;15.48;7.78;;;;;;;6.39;67.54;100574.38;4928878;28;20059;-84
2023/04/10 04:50:07;;;;;;;17.27;8.25;;;;;;;6.31;68.53;100577.47;4993095;28;20042;-84
2023/04/10 04:53:07;;;;;;;15.18;8.05;;;;;;;6.49;67.31;100586.09;4974427;28;20123;-83
2023/04/10 04:56:00;;;;;;;14.95;8.23;;;;;;;6.39;68.22;100583.16;4968419;28;20150;-84
2023/04/10 04:58:46;;;;;;;15.60;8.43;;;;;;;6.43;68.10;100584.63;4981584;28;20454;-83
2023/04/10 05:01:44;;;;;;;16.23;7.88;;;;;;;6.38;68.43;100583.22;4933086;28;20060;-84
2023/04/10 05:04:22;;;;;;;13.93;7.90;;;;;;;6.45;68.34;100585.41;4977887;28;20072;-84
2023/04/10 05:07:16;;;;;;;15.02;7.50;;;;;;;6.43;68.32;100583.81;4996821;28;20091;-83
2023/04/10 05:09:45;;;;;;;15.90;8.95;;;;;;;6.52;68.67;100592.03;5007481;28;20521;-84
2023/04/10 05:12:34;;;;;;;13.40;7.20;;;;;;;6.49;68.85;100591.38;5000631;28;20038;-83
2023/04/10 05:15:14;;;;;;;16.33;8.02;;;;;;;6.45;69.25;100582.75;4990060;28;20049;-83
2023/04/10 05:17:59;;;;;;;15.07;8.68;;;;;;;6.52;68.91;100586.75;5019305;28;20056;-84
2023/04/10 05:20:53;;;;;;;18.45;9.70;;;;;;;6.77;66.90;100585.28;4998335;28;20532;-85
2023/04/10 05:23:51;;;;;;;16.02;8.77;;;;;;;6.85;66.46;100590.09;5001642;28;20163;-84
2023/04/10 05:26:27;;;;;;;14.70;8.82;;;;;;;6.85;66.23;100584.81;4992052;28;20479;-84
2023/04/10 05:29:14;;;;;;;14.50;8.30;;;;;;;7.00;65.72;100581.22;4939961;28;20053;-85
2023/04/10 05:31:41;;;;;;;16.45;9.70;;;;;;;7.05;65.69;100580.97;4984467;28;20054;-84
2023/04/10 05:34:27;;;;;;;16.00;7.78;;;;;;;7.16;65.70;100584.59;5011749;28;20053;-84
2023/04/10 05:37:11;;;;;;;19.83;8.87;;;;;;;7.25;65.47;100584.97;4975883;28;20041;-85
2023/04/10 05:39:58;;;;;;;17.92;9.32;;;;;;;7.10;67.12;100586.81;5010985;28;20053;-84
2023/04/10 05:42:28;;;;;;;16.33;9.15;;;;;;;7.14;66.68;100596.22;5000443;28;20141;-84
2023/04/10 05:45:13;;;;;;;14.80;8.43;;;;;;;7.21;66.61;100589.63;4996720;28;20038;-84
2023/04/10 05:47:55;;;;;;;15.38;8.52;;;;;;;7.20;67.21;100595.84;4991151;28;20049;-84
2023/04/10 05:50:37;;;;;;;15.52;9.15;;;;;;;7.27;66.82;100596.28;4998969;28;20050;-84
2023/04/10 05:53:30;;;;;;;14.68;8.25;;;;;;;7.39;65.63;100595.53;4967205;28;20057;-84
2023/04/10 05:56:20;;;;;;;15.98;8.73;;;;;;;7.46;65.47;100590.72;4976951;28;20045;-84
2023/04/10 05:58:58;;;;;;;15.80;8.57;;;;;;;7.50;65.44;100593.03;5013685;28;20567;-85
2023/04/10 06:01:46;;;;;;;17.88;9.30;;;;;;;7.46;64.76;100594.22;5014906;28;20042;-84
2023/04/10 06:04:14;;;;;;;15.60;9.57;;;;;;;7.60;64.73;100590.66;4981323;28;20056;-84
2023/04/10 06:06:41;;;;;;;17.40;9.25;;;;;;;7.63;64.88;100590.47;5017004;28;20521;-84
2023/04/10 06:09:09;;;;;;;16.45;9.35;;;;;;;7.70;64.66;100590.94;4998956;28;20228;-84
2023/04/10 06:11:36;;;;;;;16.73;9.48;;;;;;;7.70;64.67;100597.06;4964251;28;20515;-84
2023/04/10 06:14:03;;;;;;;16.13;9.07;;;;;;;7.70;64.32;100589.13;5012641;28;20475;-84
2023/04/10 06:16:37;;;;;;;17.75;9.48;;;;;;;7.77;63.86;100593.09;4993790;28;20131;-85
2023/04/10 06:19:04;;;;;;;16.38;8.93;;;;;;;7.75;64.27;100584.41;4972806;28;20057;-85
2023/04/10 06:21:31;;;;;;;17.17;10.05;;;;;;;7.85;64.05;100579.38;4965795;28;20041;-84
2023/04/10 06:23:57;;;;;;;17.85;10.00;;;;;;;7.91;63.92;100586.03;5010423;28;20272;-85
2023/04/10 06:26:26;;;;;;;18.80;10.15;;;;;;;7.89;64.44;100587.97;4987344;28;20045;-84
2023/04/10 06:28:55;;;;;;;17.77;9.63;;;;;;;7.90;63.85;100582.56;4980936;28;20073;-85
2023/04/10 06:31:23;;;;;;;18.40;9.40;;;;;;;8.01;63.69;100581.84;4992471;28;20053;-84
2023/04/10 06:33:50;;;;;;;16.98;9.25;;;;;;;8.12;63.40;100570.59;4999142;28;20053;-84
2023/04/10 06:36:17;;;;;;;20.00;9.60;;;;;;;8.19;63.03;100574.50;4981533;28;20172;-84
2023/04/10 06:38:57;;;;;;;17.70;9.65;;;;;;;8.13;63.75;100569.63;5006354;28;20084;-85
2023/04/10 06:41:24;;;;;;;18.30;10.00;;;;;;;8.24;63.51;100573.25;4998832;28;20049;-85
2023/04/10 06:43:54;;;;;;;18.52;9.38;;;;;;;8.31;63.48;100571.03;4988533;28;20058;-85
2023/04/10 06:46:21;;;;;;;16.83;9.88;;;;;;;8.27;63.69;100564.25;4950478;28;20060;-84
2023/04/10 06:48:47;;;;;;;17.35;9.20;;;;;;;8.40;63.00;100566.97;4999321;28;20129;-85
2023/04/10 06:51:14;;;;;;;19.88;9.77;;;;;;;8.43;62.81;100566.75;4997715;28;20133;-85
2023/04/10 06:53:41;;;;;;;18.88;10.63;;;;;;;8.47;62.55;100562.94;5015147;28;20487;-85
2023/04/10 06:56:08;;;;;;;19.30;10.80;;;;;;;8.60;61.93;100555.88;5006420;28;20541;-85
2023/04/10 06:58:35;;;;;;;19.80;10.55;;;;;;;8.62;62.43;100558.38;4962434;28;20653;-85
2023/04/10 07:01:03;;;;;;;20.83;11.75;;;;;;;8.66;62.39;100555.44;4968624;28;20566;-85
2023/04/10 07:03:31;;;;;;;20.67;10.45;;;;;;;8.70;61.95;100548.09;4980171;28;20073;-84
2023/04/10 07:06:02;;;;;;;18.27;10.52;;;;;;;8.77;62.15;100557.31;4987855;28;20115;-85
2023/04/10 07:08:29;;;;;;;19.05;10.32;;;;;;;8.82;62.19;100551.72;4974576;28;20055;-85
2023/04/10 07:10:57;;;;;;;19.58;10.07;;;;;;;8.85;62.36;100548.84;5016919;28;20443;-85
2023/04/10 07:13:24;;;;;;;16.55;9.73;;;;;;;8.86;62.29;100548.75;4977782;28;20056;-84
2023/04/10 07:15:51;;;;;;;21.30;11.15;;;;;;;8.94;62.36;100552.69;4994722;28;20057;-85
2023/04/10 07:18:18;;;;;;;18.80;10.25;;;;;;;8.98;62.01;100543.53;5017077;28;20053;-84
2023/04/10 07:20:47;;;;;;;19.48;9.38;;;;;;;9.07;61.88;100546.38;4998013;28;20267;-85
2023/04/10 07:23:14;;;;;;;15.00;9.18;;;;;;;9.20;61.71;100535.75;5010424;28;20045;-85
2023/04/10 07:25:42;;;;;;;18.52;9.63;;;;;;;9.21;62.07;100536.59;5004786;28;20148;-85
2023/04/10 07:28:08;;;;;;;19.05;10.40;;;;;;;9.25;61.87;100536.28;5009417;28;20052;-84
2023/04/10 07:30:36;;;;;;;17.52;9.60;;;;;;;9.29;61.67;100532.47;5013953;28;20129;-85
2023/04/10 07:33:03;;;;;;;18.83;9.18;;;;;;;9.37;61.18;100533.72;5020242;28;20136;-85
2023/04/10 07:35:30;;;;;;;13.73;8.20;;;;;;;9.42;60.87;100534.22;4998413;28;20111;-85
2023/04/10 07:37:57;;;;;;;17.02;9.23;;;;;;;9.45;61.29;100524.25;5001657;28;20051;-84
2023/04/10 07:40:23;;;;;;;16.50;9.38;;;;;;;9.54;61.42;100525.38;5024283;28;20043;-85
2023/04/10 07:42:50;;;;;;;17.10;9.88;;;;;;;9.52;61.78;100525.50;5010833;28;20038;-85
2023/04/10 07:45:21;;;;;;;16.13;8.57;;;;;;;9.61;62.03;100526.63;5006806;28;20493;-85
2023/04/10 07:47:48;;;;;;;15.65;8.60;;;;;;;9.69;61.97;100523.41;4976077;28;20049;-85
2023/04/10 07:50:16;;;;;;;16.58;8.75;;;;;;;9.71;61.60;100519.66;4980102;28;20053;-85
2023/04/10 07:52:43;;;;;;;13.38;7.45;;;;;;;9.80;61.39;100520.81;5017570;28;20069;-84
2023/04/10 07:55:09;;;;;;;15.38;8.43;;;;;;;9.86;61.56;100516.84;4989140;28;20052;-84
2023/04/10 07:57:36;;;;;;;12.48;6.82;;;;;;;9.91;61.28;100512.06;4974886;28;20046;-85
2023/04/10 08:00:03;;;;;;;14.57;8.25;;;;;;;9.96;61.25;100510.75;4990719;28;20068;-85
2023/04/10 08:02:39;;;;;;;13.80;8.40;;;;;;;10.05;61.21;100506.56;5013914;28;20227;-84
2023/04/10 08:05:07;;;;;;;15.05;7.45;;;;;;;10.10;61.07;100501.75;5008700;28;20410;-85
2023/04/10 08:07:37;;;;;;;12.68;7.82;;;;;;;10.16;61.11;100503.94;5014320;28;20057;-85
2023/04/10 08:10:04;;;;;;;12.88;7.50;;;;;;;10.20;60.37;100494.78;5011629;28;20038;-85
2023/04/10 08:12:37;;;;;;;12.80;7.07;;;;;;;10.24;60.18;100506.00;4991510;28;20053;-86
2023/04/10 08:15:05;;;;;;;13.95;8.07;;;;;;;10.26;60.23;100497.94;4978648;28;20052;-85
2023/04/10 08:17:36;;;;;;;11.73;6.88;;;;;;;10.32;60.27;100495.66;4971078;28;20083;-85
2023/04/10 08:20:05;;;;;;;13.93;7.55;;;;;;;10.37;59.80;100490.00;4988323;28;20403;-85
2023/04/10 08:22:32;;;;;;;11.10;6.25;;;;;;;10.42;59.52;100496.66;4946725;28;20056;-85
2023/04/10 08:24:59;;;;;;;9.00;5.72;;;;;;;10.45;59.28;100492.91;4923214;28;20439;-85
2023/04/10 08:27:29;;;;;;;9.07;5.55;;;;;;;10.49;59.30;100496.19;4939351;28;20049;-85
2023/04/10 08:30:00;;;;;;;9.37;5.70;;;;;;;10.50;58.85;100498.72;4980721;28;20045;-86
2023/04/10 08:32:28;;;;;;;10.27;5.53;;;;;;;10.54;59.03;100502.00;4965576;28;20057;-85
2023/04/10 08:34:55;;;;;;;9.52;6.07;;;;;;;10.57;58.95;100494.63;4985945;28;20060;-84
2023/04/10 08:37:23;;;;;;;12.27;6.60;;;;;;;10.60;58.67;100494.38;4938256;28;20049;-85
2023/04/10 08:39:52;;;;;;;10.10;6.00;;;;;;;10.60;58.04;100483.75;4975041;28;20076;-85
2023/04/10 08:42:24;;;;;;;9.45;6.20;;;;;;;10.64;57.99;100484.38;4974693;28;20495;-85
2023/04/10 08:44:58;;;;;;;9.80;6.00;;;;;;;10.68;58.33;100487.63;4955215;28;20124;-85
2023/04/10 08:47:27;;;;;;;9.48;6.07;;;;;;;10.70;58.21;100491.84;4961470;28;20486;-85
2023/04/10 08:50:02;;;;;;;11.57;6.28;;;;;;;10.75;58.08;100488.84;4913840;28;20048;-85
2023/04/10 08:52:35;;;;;;;8.63;5.60;;;;;;;10.78;57.77;100489.44;4949804;28;20052;-85
2023/04/10 08:55:07;;;;;;;9.45;5.70;;;;;;;10.82;57.25;100488.22;4933876;28;20043;-85
2023/04/10 08:57:37;;;;;;;12.63;6.38;;;;;;;10.85;57.70;100481.81;4967630;28;20069;-85
2023/04/10 09:00:07;;;;;;;10.95;6.32;;;;;;;10.92;57.48;100490.16;4956358;28;20080;-85
2023/04/10 09:02:53;;;;;;;8.48;5.90;;;;;;;10.96;57.12;100483.63;4973840;28;20067;-85
2023/04/10 09:05:24;;;;;;;11.32;6.68;;;;;;;10.95;57.08;100474.81;4964103;28;26439;-85
2023/04/10 09:07:54;;;;;;;10.88;6.20;;;;;;;10.99;57.29;100476.28;4959733;28;20192;-85
2023/04/10 09:10:24;;;;;;;11.35;5.82;;;;;;;10.99;56.52;100473.63;4969486;28;20052;-85
2023/04/10 09:12:55;;;;;;;9.07;5.82;;;;;;;11.01;56.67;100476.97;4931988;28;20156;-85
2023/04/10 09:15:26;;;;;;;7.85;5.18;;;;;;;11.04;56.90;100465.25;4938866;28;20048;-85
2023/04/10 09:18:01;;;;;;;9.18;5.90;;;;;;;11.07;56.93;100467.69;4963954;28;20454;-85
2023/04/10 09:20:32;;;;;;;10.00;5.55;;;;;;;11.12;56.91;100456.66;4993633;28;20478;-85
2023/04/10 09:23:01;;;;;;;8.70;5.20;;;;;;;11.18;56.71;100458.84;4961410;28;20057;-85
2023/04/10 09:25:35;;;;;;;9.45;5.57;;;;;;;11.14;55.50;100450.25;4978321;28;20152;-85
2023/04/10 09:28:10;;;;;;;8.00;5.07;;;;;;;11.15;56.16;100436.00;4996206;28;20076;-85
2023/04/10 09:30:42;;;;;;;7.60;5.05;;;;;;;11.17;55.32;100428.75;4985875;28;20050;-85
2023/04/10 09:33:27;;;;;;;7.30;5.38;;;;;;;11.17;55.43;100427.88;4963126;28;20517;-84
2023/04/10 09:36:04;;;;;;;9.57;5.18;;;;;;;11.24;56.15;100413.97;4918033;28;20522;-85
2023/04/10 09:38:37;;;;;;;6.75;4.80;;;;;;;11.31;55.86;100416.97;4927014;28;20112;-85
2023/04/10 09:41:16;;;;;;;7.85;4.90;;;;;;;11.33;55.65;100415.03;4951173;28;20149;-83
2023/04/10 09:43:45;;;;;;;6.88;4.28;;;;;;;11.35;55.53;100407.78;5007234;28;20132;-85
2023/04/10 09:46:24;;;;;;;9.05;5.25;;;;;;;11.35;55.54;100410.44;4974014;28;20111;-85
2023/04/10 09:49:01;;;;;;;7.55;5.30;;;;;;;11.43;55.01;100407.16;4999244;28;20050;-86
2023/04/10 09:51:33;;;;;;;7.68;4.82;;;;;;;11.48;55.46;100405.81;4997895;28;20045;-85
2023/04/10 09:54:02;;;;;;;6.80;4.63;;;;;;;11.48;55.28;100405.81;4995453;28;20081;-85
2023/04/10 09:56:33;;;;;;;7.00;4.43;;;;;;;11.53;55.25;100397.44;4987297;28;20050;-85
2023/04/10 09:59:00;;;;;;;10.15;5.82;;;;;;;11.54;55.47;100383.16;4989765;28;20169;-85
2023/04/10 10:01:36;;;;;;;8.70;5.10;;;;;;;11.57;55.65;100377.56;4983999;28;20053;-85
2023/04/10 10:04:04;;;;;;;9.10;5.07;;;;;;;11.62;55.27;100382.50;4955845;28;20091;-86
2023/04/10 10:06:37;;;;;;;6.45;4.53;;;;;;;11.60;54.41;100379.13;4991327;28;20060;-85
2023/04/10 10:09:04;;;;;;;7.15;4.97;;;;;;;11.69;54.88;100376.56;4958709;28;20049;-85
2023/04/10 10:11:33;;;;;;;7.72;4.88;;;;;;;11.73;54.87;100371.84;4991678;28;20054;-85
2023/04/10 10:14:12;;;;;;;7.70;4.57;;;;;;;11.76;53.91;100358.25;4997367;28;20053;-84
2023/04/10 10:16:46;;;;;;;6.22;3.72;;;;;;;11.79;54.26;100357.16;4982219;28;20398;-85
2023/04/10 10:19:28;;;;;;;6.45;4.15;;;;;;;11.77;52.70;100354.63;4989132;28;20509;-85
2023/04/10 10:21:55;;;;;;;7.70;4.07;;;;;;;11.86;54.06;100348.56;4979298;28;20088;-85
2023/04/10 10:24:26;;;;;;;5.80;3.67;;;;;;;11.97;54.24;100341.47;4972712;28;20533;-84
2023/04/10 10:26:57;;;;;;;6.13;4.05;;;;;;;12.02;54.09;100323.28;4981758;28;20087;-85
2023/04/10 10:29:31;;;;;;;5.70;3.90;;;;;;;12.03;53.85;100325.78;5014522;28;20053;-84
2023/04/10 10:32:01;;;;;;;7.60;4.53;;;;;;;12.10;53.92;100332.28;4992379;28;20049;-85
2023/04/10 10:34:32;;;;;;;6.25;3.95;;;;;;;12.12;53.63;100317.00;4987508;28;20049;-84
2023/04/10 10:37:08;;;;;;;5.68;3.58;;;;;;;12.10;53.13;100307.47;4987993;28;20045;-85
2023/04/10 10:39:59;;;;;;;7.00;3.95;;;;;;;12.07;52.41;100313.91;4980597;28;20045;-85
2023/04/10 10:42:35;;;;;;;6.38;3.83;;;;;;;12.14;52.73;100306.25;4994866;28;20407;-85
2023/04/10 10:45:07;;;;;;;4.88;3.42;;;;;;;12.16;53.27;100298.94;5013793;28;20651;-84
2023/04/10 10:47:41;;;;;;;6.72;4.25;;;;;;;12.23;53.00;100301.91;4980527;28;20049;-85
2023/04/10 10:50:08;;;;;;;6.65;4.20;;;;;;;12.23;52.15;100299.25;4983874;28;20542;-84
2023/04/10 10:52:37;;;;;;;5.50;3.63;;;;;;;12.24;52.08;100295.63;5015533;28;20510;-84
2023/04/10 10:55:37;;;;;;;4.75;3.45;;;;;;;12.21;51.10;100294.06;4988495;28;20052;-85
2023/04/10 10:58:06;;;;;;;5.45;3.75;;;;;;;12.28;52.30;100297.03;4946593;28;20478;-85
2023/04/10 11:00:58;;;;;;;6.13;3.90;;;;;;;12.26;51.37;100288.31;4990219;28;20147;-85
2023/04/10 11:03:30;;;;;;;5.32;3.65;;;;;;;12.31;52.20;100284.31;4989778;28;20107;-85
2023/04/10 11:06:11;;;;;;;4.90;3.63;;;;;;;12.37;51.43;100288.25;4970929;28;20068;-85
2023/04/10 11:08:47;;;;;;;3.67;3.00;;;;;;;12.40;51.61;100281.78;4971631;28;20049;-86
2023/04/10 11:11:26;;;;;;;3.80;2.80;;;;;;;12.37;51.27;100277.59;4975548;28;20038;-85
2023/04/10 11:14:05;;;;;;;4.70;3.25;;;;;;;12.48;51.13;100277.44;4990664;28;20632;-85
2023/04/10 11:16:35;;;;;;;3.63;2.97;;;;;;;12.52;51.07;100278.88;5006438;28;20045;-86
2023/04/10 11:19:18;;;;;;;4.05;2.92;;;;;;;12.53;50.60;100272.56;5002580;28;20042;-86
2023/04/10 11:22:06;;;;;;;4.10;2.88;;;;;;;12.50;49.88;100261.34;4978791;28;20057;-85
2023/04/10 11:25:00;;;;;;;4.00;3.00;;;;;;;12.49;49.53;100270.31;4996783;28;20049;-85
2023/04/10 11:27:38;;;;;;;4.88;2.55;;;;;;;12.52;49.70;100268.22;4961980;28;20054;-85
2023/04/10 11:30:34;;;;;;;3.60;2.58;;;;;;;12.54;49.56;100262.75;4978831;28;20057;-85
2023/04/10 11:33:03;;;;;;;2.92;2.13;;;;;;;12.62;49.73;100254.06;4977316;28;20041;-85
2023/04/10 11:35:33;;;;;;;3.08;2.53;;;;;;;12.65;49.69;100245.81;4964428;28;20053;-86
2023/04/10 11:38:11;;;;;;;3.67;2.53;;;;;;;12.64;49.73;100247.59;4997403;28;20056;-85
2023/04/10 11:40:56;;;;;;;2.92;2.20;;;;;;;12.65;48.06;100248.47;5005494;28;20370;-85
2023/04/10 11:43:24;;;;;;;2.70;1.90;;;;;;;12.72;49.38;100237.13;5004601;28;20053;-86
2023/04/10 11:46:08;;;;;;;2.70;1.92;;;;;;;12.71;47.23;100237.25;4967322;28;20062;-86
2023/04/10 11:48:39;;;;;;;2.40;2.17;;;;;;;12.78;48.49;100241.03;4988217;28;20073;-85
2023/04/10 11:51:11;;;;;;;2.22;2.03;;;;;;;12.80;48.67;100229.25;4978135;28;20051;-85
2023/04/10 11:53:41;;;;;;;4.05;2.30;;;;;;;12.87;48.33;100223.34;4979910;28;20099;-85